createdAt,value
2023-05-25T00:00:53.487Z,5.68
2023-05-25T00:01:41.990Z,5.64
2023-05-25T00:02:42.063Z,5.62
2023-05-25T00:03:41.958Z,5.57
2023-05-25T00:04:41.996Z,5.51
2023-05-25T00:05:42.029Z,5.51
2023-05-25T00:06:41.870Z,5.48
2023-05-25T00:07:41.880Z,5.46
2023-05-25T00:08:41.874Z,5.47
2023-05-25T00:09:41.871Z,5.47
2023-05-25T00:10:41.829Z,5.50
2023-05-25T00:11:41.825Z,5.44
2023-05-25T00:12:41.802Z,5.38
2023-05-25T00:13:41.830Z,5.35
2023-05-25T00:14:41.787Z,5.33
2023-05-25T00:19:04.220Z,5.36
2023-05-25T00:20:05.231Z,5.41
2023-05-25T00:21:05.199Z,5.46
2023-05-25T00:22:05.192Z,5.53
2023-05-25T00:23:05.196Z,5.53
2023-05-25T00:24:05.173Z,5.50
2023-05-25T00:25:05.170Z,5.48
2023-05-25T00:26:05.153Z,5.48
2023-05-25T00:27:05.140Z,5.47
2023-05-25T00:28:05.154Z,5.46
2023-05-25T00:29:05.114Z,5.46
2023-05-25T00:30:05.124Z,5.43
2023-05-25T00:31:05.144Z,5.38
2023-05-25T00:32:05.131Z,5.29
2023-05-25T00:33:05.159Z,5.26
2023-05-25T00:34:05.075Z,5.20
2023-05-25T00:35:05.069Z,5.15
2023-05-25T00:36:05.051Z,5.07
2023-05-25T00:37:05.059Z,5.04
2023-05-25T00:38:05.042Z,5.00
2023-05-25T00:39:05.017Z,4.99
2023-05-25T00:40:05.009Z,5.07
2023-05-25T00:41:04.998Z,5.04
2023-05-25T00:42:05.027Z,5.02
2023-05-25T00:43:04.980Z,5.07
2023-05-25T00:44:04.977Z,5.14
2023-05-25T00:45:04.954Z,5.18
2023-05-25T00:46:05.005Z,5.23
2023-05-25T00:47:04.966Z,5.29
2023-05-25T00:48:04.966Z,5.33
2023-05-25T00:49:04.905Z,5.32
2023-05-25T00:50:04.918Z,5.35
2023-05-25T00:51:04.909Z,5.30
2023-05-25T00:52:04.893Z,5.28
2023-05-25T00:53:04.868Z,5.23
2023-05-25T00:54:04.872Z,5.26
2023-05-25T00:55:04.852Z,5.26
2023-05-25T00:56:04.875Z,5.26
2023-05-25T00:57:04.894Z,5.25
2023-05-25T00:58:04.824Z,5.30
2023-05-25T00:59:04.820Z,5.30
2023-05-25T01:00:04.822Z,5.32
2023-05-25T01:01:04.799Z,5.33
2023-05-25T01:02:04.868Z,5.38
2023-05-25T01:03:04.895Z,5.38
2023-05-25T01:04:04.835Z,5.35
2023-05-25T01:05:04.765Z,5.30
2023-05-25T01:06:04.761Z,5.28
2023-05-25T01:07:04.739Z,5.28
2023-05-25T01:08:04.731Z,5.30
2023-05-25T01:09:04.700Z,5.30
2023-05-25T01:10:04.706Z,5.26
2023-05-25T01:11:04.686Z,5.21
2023-05-25T01:12:04.680Z,5.15
2023-05-25T01:13:04.655Z,5.12
2023-05-25T01:14:04.685Z,5.07
2023-05-25T01:15:04.683Z,5.07
2023-05-25T01:16:04.658Z,5.04
2023-05-25T01:17:04.618Z,5.00
2023-05-25T01:18:04.643Z,5.00
2023-05-25T01:19:04.627Z,5.00
2023-05-25T01:21:04.585Z,5.08
2023-05-25T01:22:04.575Z,5.14
2023-05-25T01:23:04.572Z,5.20
2023-05-25T01:24:04.564Z,5.28
2023-05-25T01:25:04.538Z,5.30
2023-05-25T01:26:04.561Z,5.32
2023-05-25T01:27:04.524Z,5.38
2023-05-25T01:28:04.533Z,5.41
2023-05-25T01:29:04.479Z,5.53
2023-05-25T01:30:04.506Z,5.62
2023-05-25T01:31:04.472Z,5.68
2023-05-25T01:32:04.516Z,5.73
2023-05-25T01:33:04.792Z,5.76
2023-05-25T01:34:04.485Z,5.83
2023-05-25T01:35:04.476Z,5.89
2023-05-25T01:36:04.429Z,5.94
2023-05-25T01:37:04.427Z,6.02
2023-05-25T01:38:04.426Z,6.11
2023-05-25T01:39:04.382Z,6.17
2023-05-25T01:40:04.395Z,6.22
2023-05-25T01:41:04.379Z,6.31
2023-05-25T01:42:04.377Z,6.39
2023-05-25T01:43:04.375Z,6.45
2023-05-25T01:44:04.363Z,6.51
2023-05-25T01:45:04.314Z,6.59
2023-05-25T01:46:04.358Z,6.59
2023-05-25T01:47:04.333Z,6.62
2023-05-25T01:48:04.378Z,6.62
2023-05-25T01:49:04.277Z,6.67
2023-05-25T01:50:04.287Z,6.69
2023-05-25T01:51:04.265Z,6.69
2023-05-25T01:52:04.312Z,6.75
2023-05-25T01:53:04.259Z,6.81
2023-05-25T01:54:04.240Z,6.87
2023-05-25T01:55:04.216Z,6.93
2023-05-25T01:56:04.217Z,7.00
2023-05-25T01:57:04.224Z,7.07
2023-05-25T01:58:04.188Z,7.10
2023-05-25T01:59:04.180Z,7.11
2023-05-25T02:00:04.181Z,7.14
2023-05-25T02:01:04.197Z,7.15
2023-05-25T02:02:04.175Z,7.20
2023-05-25T02:03:04.186Z,7.21
2023-05-25T02:04:04.153Z,7.24
2023-05-25T02:05:04.120Z,7.25
2023-05-25T02:06:04.125Z,7.29
2023-05-25T02:07:04.098Z,7.33
2023-05-25T02:08:04.093Z,7.38
2023-05-25T02:09:04.068Z,7.39
2023-05-25T02:10:04.061Z,7.39
2023-05-25T02:11:04.069Z,7.43
2023-05-25T02:12:04.056Z,7.47
2023-05-25T02:13:04.035Z,7.48
2023-05-25T02:14:04.028Z,7.50
2023-05-25T02:15:04.040Z,7.51
2023-05-25T02:16:04.083Z,7.54
2023-05-25T02:17:04.002Z,7.51
2023-05-25T02:18:04.173Z,7.51
2023-05-25T02:19:03.961Z,7.51
2023-05-25T02:20:04.016Z,7.51
2023-05-25T02:21:03.949Z,7.53
2023-05-25T02:22:03.941Z,7.54
2023-05-25T02:23:03.931Z,7.58
2023-05-25T02:24:03.956Z,7.57
2023-05-25T02:25:03.943Z,7.60
2023-05-25T02:26:03.909Z,7.60
2023-05-25T02:27:03.890Z,7.61
2023-05-25T02:28:03.883Z,7.61
2023-05-25T02:29:03.870Z,7.63
2023-05-25T02:30:04.005Z,7.66
2023-05-25T02:31:03.912Z,7.69
2023-05-25T02:32:03.846Z,7.69
2023-05-25T02:33:03.929Z,7.70
2023-05-25T02:34:03.836Z,7.72
2023-05-25T02:35:03.822Z,7.69
2023-05-25T02:36:03.742Z,7.67
2023-05-25T02:37:03.788Z,7.57
2023-05-25T02:38:03.791Z,7.54
2023-05-25T02:39:03.774Z,7.54
2023-05-25T02:40:03.751Z,7.54
2023-05-25T02:41:03.733Z,7.56
2023-05-25T02:42:03.692Z,7.57
2023-05-25T02:43:03.666Z,7.58
2023-05-25T02:44:03.672Z,7.61
2023-05-25T02:45:03.707Z,7.60
2023-05-25T02:46:03.706Z,7.61
2023-05-25T02:47:03.777Z,7.57
2023-05-25T02:48:03.806Z,7.57
2023-05-25T02:49:03.670Z,7.56
2023-05-25T02:50:03.632Z,7.56
2023-05-25T02:51:03.640Z,7.54
2023-05-25T02:52:03.633Z,7.60
2023-05-25T02:53:03.578Z,7.60
2023-05-25T02:54:03.593Z,7.63
2023-05-25T02:55:03.537Z,7.66
2023-05-25T02:56:03.540Z,7.58
2023-05-25T02:57:03.541Z,7.54
2023-05-25T02:58:03.541Z,7.48
2023-05-25T02:59:03.492Z,7.40
2023-05-25T03:00:03.481Z,7.32
2023-05-25T03:01:03.506Z,7.25
2023-05-25T03:02:03.475Z,7.15
2023-05-25T03:03:03.646Z,7.11
2023-05-25T03:04:03.665Z,7.07
2023-05-25T03:05:04.646Z,7.13
2023-05-25T03:06:03.410Z,7.13
2023-05-25T03:07:03.428Z,7.20
2023-05-25T03:08:03.425Z,7.25
2023-05-25T03:09:03.403Z,7.28
2023-05-25T03:10:03.380Z,7.29
2023-05-25T03:11:03.369Z,7.29
2023-05-25T03:12:03.392Z,7.32
2023-05-25T03:13:03.349Z,7.33
2023-05-25T03:14:03.341Z,7.32
2023-05-25T03:15:03.342Z,7.28
2023-05-25T03:16:03.312Z,7.29
2023-05-25T03:17:03.453Z,7.32
2023-05-25T03:18:03.362Z,7.33
2023-05-25T03:19:03.273Z,7.39
2023-05-25T03:20:03.301Z,7.45
2023-05-25T03:21:03.300Z,7.45
2023-05-25T03:22:03.318Z,7.50
2023-05-25T03:23:03.230Z,7.51
2023-05-25T03:24:03.353Z,7.56
2023-05-25T03:25:03.216Z,7.56
2023-05-25T03:26:03.226Z,7.58
2023-05-25T03:27:03.225Z,7.66
2023-05-25T03:28:03.190Z,7.70
2023-05-25T03:29:03.177Z,7.72
2023-05-25T03:30:03.179Z,7.75
2023-05-25T03:31:03.165Z,7.80
2023-05-25T03:32:03.207Z,7.82
2023-05-25T03:33:03.187Z,7.83
2023-05-25T03:34:03.122Z,7.82
2023-05-25T03:35:03.129Z,7.83
2023-05-25T03:36:03.107Z,7.88
2023-05-25T03:37:03.122Z,7.91
2023-05-25T03:38:03.080Z,7.94
2023-05-25T03:39:03.063Z,7.95
2023-05-25T03:40:03.088Z,8.01
2023-05-25T03:41:03.068Z,8.01
2023-05-25T03:42:03.038Z,8.01
2023-05-25T03:43:03.035Z,8.08
2023-05-25T03:44:03.077Z,8.10
2023-05-25T03:45:03.034Z,8.13
2023-05-25T03:46:03.047Z,8.15
2023-05-25T03:47:02.984Z,8.18
2023-05-25T03:48:03.002Z,8.23
2023-05-25T03:49:02.966Z,8.23
2023-05-25T03:50:03.006Z,8.24
2023-05-25T03:51:02.958Z,8.24
2023-05-25T03:52:02.926Z,8.27
2023-05-25T03:53:02.919Z,8.27
2023-05-25T03:54:02.989Z,8.28
2023-05-25T03:55:02.937Z,8.31
2023-05-25T03:56:02.875Z,8.30
2023-05-25T03:57:02.874Z,8.33
2023-05-25T03:58:02.851Z,8.33
2023-05-25T03:59:02.865Z,8.33
2023-05-25T04:00:02.845Z,8.30
2023-05-25T04:01:04.415Z,8.33
2023-05-25T04:02:02.812Z,8.34
2023-05-25T04:03:02.911Z,8.36
2023-05-25T04:04:02.899Z,8.37
2023-05-25T04:05:02.791Z,8.37
2023-05-25T04:06:02.779Z,8.38
2023-05-25T04:07:02.786Z,8.41
2023-05-25T04:08:02.836Z,8.42
2023-05-25T04:09:02.761Z,8.45
2023-05-25T04:10:02.733Z,8.45
2023-05-25T04:11:02.740Z,8.48
2023-05-25T04:12:02.700Z,8.49
2023-05-25T04:13:02.726Z,8.52
2023-05-25T04:14:02.686Z,8.51
2023-05-25T04:15:02.685Z,8.55
2023-05-25T04:16:02.671Z,8.53
2023-05-25T04:17:02.675Z,8.58
2023-05-25T04:18:02.717Z,8.63
2023-05-25T04:19:02.657Z,8.66
2023-05-25T04:20:02.667Z,8.70
2023-05-25T04:21:02.614Z,8.70
2023-05-25T04:22:02.623Z,8.71
2023-05-25T04:23:02.609Z,8.71
2023-05-25T04:24:02.626Z,8.78
2023-05-25T04:25:02.580Z,8.79
2023-05-25T04:26:02.556Z,8.76
2023-05-25T04:27:02.582Z,8.82
2023-05-25T04:28:02.530Z,8.85
2023-05-25T04:29:02.544Z,8.87
2023-05-25T04:30:02.525Z,8.92
2023-05-25T04:31:02.539Z,8.94
2023-05-25T04:32:02.626Z,8.94
2023-05-25T04:33:02.571Z,8.95
2023-05-25T04:34:02.476Z,8.94
2023-05-25T04:35:02.473Z,9.00
2023-05-25T04:36:02.490Z,9.03
2023-05-25T04:37:02.441Z,9.06
2023-05-25T04:38:02.448Z,9.13
2023-05-25T04:39:02.423Z,9.19
2023-05-25T04:40:02.401Z,9.26
2023-05-25T04:41:02.444Z,9.31
2023-05-25T04:42:02.383Z,9.36
2023-05-25T04:43:02.378Z,9.39
2023-05-25T04:45:02.393Z,9.51
2023-05-25T04:46:02.383Z,9.55
2023-05-25T04:47:02.353Z,9.59
2023-05-25T04:48:02.366Z,9.61
2023-05-25T04:49:02.317Z,9.62
2023-05-25T04:50:02.352Z,9.66
2023-05-25T04:51:02.301Z,9.65
2023-05-25T04:52:02.322Z,9.61
2023-05-25T04:53:02.304Z,9.62
2023-05-25T04:54:02.259Z,9.66
2023-05-25T04:55:02.382Z,9.73
2023-05-25T04:56:02.243Z,9.76
2023-05-25T04:57:02.237Z,9.74
2023-05-25T04:58:02.235Z,9.73
2023-05-25T04:59:02.279Z,9.76
2023-05-25T05:00:02.345Z,9.80
2023-05-25T05:01:02.236Z,9.84
2023-05-25T05:02:02.184Z,9.84
2023-05-25T05:03:02.320Z,9.86
2023-05-25T05:04:02.287Z,9.94
2023-05-25T05:05:02.199Z,9.97
2023-05-25T05:06:02.135Z,9.95
2023-05-25T05:07:02.116Z,9.97
2023-05-25T05:08:02.098Z,9.99
2023-05-25T05:09:02.237Z,10.09
2023-05-25T05:10:02.106Z,10.10
2023-05-25T05:11:02.092Z,10.09
2023-05-25T05:12:02.060Z,10.10
2023-05-25T05:13:02.096Z,10.13
2023-05-25T05:14:02.061Z,10.17
2023-05-25T05:15:02.048Z,10.20
2023-05-25T05:16:02.030Z,10.23
2023-05-25T05:17:02.083Z,10.28
2023-05-25T05:18:02.072Z,10.33
2023-05-25T05:19:02.018Z,10.31
2023-05-25T05:20:02.066Z,10.30
2023-05-25T05:21:01.976Z,10.35
2023-05-25T05:22:01.966Z,10.37
2023-05-25T05:23:01.993Z,10.38
2023-05-25T05:24:01.968Z,10.38
2023-05-25T05:25:01.936Z,10.44
2023-05-25T05:26:01.921Z,10.44
2023-05-25T05:28:01.913Z,10.40
2023-05-25T05:29:01.909Z,10.40
2023-05-25T05:30:01.886Z,10.40
2023-05-25T05:31:01.883Z,10.40
2023-05-25T05:32:01.900Z,10.42
2023-05-25T05:33:01.973Z,10.42
2023-05-25T05:34:01.848Z,10.42
2023-05-25T05:35:01.831Z,10.48
2023-05-25T05:36:01.818Z,10.51
2023-05-25T05:37:01.842Z,10.54
2023-05-25T05:38:01.837Z,10.56
2023-05-25T05:39:01.803Z,10.56
2023-05-25T05:40:01.765Z,10.60
2023-05-25T05:41:01.812Z,10.59
2023-05-25T05:42:01.766Z,10.57
2023-05-25T05:43:01.734Z,10.53
2023-05-25T05:44:01.720Z,10.54
2023-05-25T05:45:01.720Z,10.54
2023-05-25T05:46:01.819Z,10.57
2023-05-25T05:47:01.941Z,10.53
2023-05-25T05:48:01.718Z,10.49
2023-05-25T05:49:01.671Z,10.49
2023-05-25T05:50:01.674Z,10.57
2023-05-25T05:51:01.677Z,10.56
2023-05-25T05:52:01.690Z,10.60
2023-05-25T05:53:01.630Z,10.61
2023-05-25T05:54:01.616Z,10.63
2023-05-25T05:55:01.631Z,10.68
2023-05-25T05:56:01.626Z,10.71
2023-05-25T05:57:01.648Z,10.72
2023-05-25T05:58:01.578Z,10.76
2023-05-25T05:59:01.566Z,10.81
2023-05-25T06:00:01.878Z,10.81
2023-05-25T06:01:01.593Z,10.78
2023-05-25T06:02:01.572Z,10.76
2023-05-25T06:03:01.769Z,10.79
2023-05-25T06:04:01.524Z,10.79
2023-05-25T06:05:01.568Z,10.87
2023-05-25T06:06:01.743Z,10.89
2023-05-25T06:07:01.504Z,10.93
2023-05-25T06:08:01.483Z,10.97
2023-05-25T06:09:01.489Z,11.00
2023-05-25T06:10:01.475Z,11.04
2023-05-25T06:11:01.444Z,11.05
2023-05-25T06:12:01.425Z,11.04
2023-05-25T06:13:01.428Z,11.02
2023-05-25T06:14:01.443Z,11.05
2023-05-25T06:15:01.408Z,11.10
2023-05-25T06:16:01.424Z,11.15
2023-05-25T06:17:01.568Z,11.18
2023-05-25T06:18:01.409Z,11.23
2023-05-25T06:19:01.509Z,11.22
2023-05-25T06:20:01.353Z,11.17
2023-05-25T06:21:01.331Z,11.08
2023-05-25T06:22:01.354Z,11.08
2023-05-25T06:23:01.346Z,11.05
2023-05-25T06:24:01.312Z,11.02
2023-05-25T06:25:01.637Z,11.00
2023-05-25T06:26:01.281Z,11.02
2023-05-25T06:27:01.279Z,11.07
2023-05-25T06:28:01.302Z,11.11
2023-05-25T06:29:01.242Z,11.17
2023-05-25T06:30:01.244Z,11.25
2023-05-25T06:31:01.222Z,11.23
2023-05-25T06:32:01.255Z,11.25
2023-05-25T06:33:01.285Z,11.23
2023-05-25T06:34:01.203Z,11.25
2023-05-25T06:35:01.211Z,11.25
2023-05-25T06:36:01.172Z,11.27
2023-05-25T06:37:01.188Z,11.23
2023-05-25T06:38:01.171Z,11.25
2023-05-25T06:39:01.141Z,11.29
2023-05-25T06:40:01.140Z,11.29
2023-05-25T06:41:01.124Z,11.32
2023-05-25T06:42:01.117Z,11.37
2023-05-25T06:43:01.124Z,11.45
2023-05-25T06:44:01.103Z,11.52
2023-05-25T06:45:01.073Z,11.57
2023-05-25T06:46:01.078Z,11.63
2023-05-25T06:47:01.090Z,11.63
2023-05-25T06:48:01.066Z,11.62
2023-05-25T06:49:01.028Z,11.69
2023-05-25T06:50:01.019Z,11.73
2023-05-25T06:51:01.035Z,11.72
2023-05-25T06:52:01.023Z,11.70
2023-05-25T06:53:00.983Z,11.70
2023-05-25T06:54:00.983Z,11.69
2023-05-25T06:55:01.009Z,11.66
2023-05-25T06:56:01.019Z,11.70
2023-05-25T06:57:01.011Z,11.72
2023-05-25T06:58:00.938Z,11.72
2023-05-25T06:59:00.932Z,11.77
2023-05-25T07:00:00.906Z,11.80
2023-05-25T07:01:00.963Z,11.83
2023-05-25T07:02:00.901Z,11.88
2023-05-25T07:03:00.906Z,11.90
2023-05-25T07:04:00.901Z,11.84
2023-05-25T07:05:00.922Z,11.87
2023-05-25T07:06:00.859Z,11.87
2023-05-25T07:07:00.845Z,11.83
2023-05-25T07:08:00.828Z,11.80
2023-05-25T07:09:00.870Z,11.81
2023-05-25T07:10:00.934Z,11.83
2023-05-25T07:11:00.808Z,11.88
2023-05-25T07:12:01.373Z,11.91
2023-05-25T07:13:00.788Z,11.87
2023-05-25T07:14:00.765Z,11.87
2023-05-25T07:15:00.998Z,11.88
2023-05-25T07:16:00.774Z,11.88
2023-05-25T07:17:00.739Z,11.87
2023-05-25T07:18:00.773Z,11.88
2023-05-25T07:19:00.752Z,11.90
2023-05-25T07:20:00.794Z,11.86
2023-05-25T07:21:00.704Z,11.78
2023-05-25T07:22:00.681Z,11.66
2023-05-25T07:23:00.684Z,11.66
2023-05-25T07:24:01.041Z,11.70
2023-05-25T07:25:00.681Z,11.66
2023-05-25T07:26:00.646Z,11.66
2023-05-25T07:27:00.629Z,11.68
2023-05-25T07:28:00.671Z,11.75
2023-05-25T07:29:00.839Z,11.75
2023-05-25T07:30:00.617Z,11.80
2023-05-25T07:31:00.694Z,11.81
2023-05-25T07:32:00.581Z,11.83
2023-05-25T07:33:00.629Z,11.91
2023-05-25T07:34:00.582Z,11.99
2023-05-25T07:35:00.566Z,12.02
2023-05-25T07:36:00.555Z,12.10
2023-05-25T07:37:01.366Z,12.12
2023-05-25T07:38:00.554Z,12.15
2023-05-25T07:39:00.504Z,12.12
2023-05-25T07:40:00.529Z,12.17
2023-05-25T07:41:00.501Z,12.10
2023-05-25T07:42:00.491Z,12.15
2023-05-25T07:43:00.508Z,12.17
2023-05-25T07:44:00.463Z,12.02
2023-05-25T07:45:00.453Z,12.00
2023-05-25T07:46:00.432Z,12.02
2023-05-25T07:47:00.467Z,11.95
2023-05-25T07:48:00.465Z,11.97
2023-05-25T07:49:00.412Z,12.00
2023-05-25T07:50:00.410Z,12.02
2023-05-25T07:51:00.369Z,12.04
2023-05-25T07:52:00.380Z,12.03
2023-05-25T07:53:00.419Z,12.06
2023-05-25T07:54:00.348Z,12.07
2023-05-25T07:55:00.498Z,12.06
2023-05-25T07:56:00.481Z,12.12
2023-05-25T07:57:00.330Z,12.17
2023-05-25T07:58:00.301Z,12.21
2023-05-25T07:59:00.379Z,12.25
2023-05-25T08:00:00.461Z,12.28
2023-05-25T08:01:00.315Z,12.31
2023-05-25T08:02:00.326Z,12.35
2023-05-25T08:03:00.407Z,12.42
2023-05-25T08:04:00.511Z,12.45
2023-05-25T08:05:00.342Z,12.45
2023-05-25T08:06:00.252Z,12.37
2023-05-25T08:07:00.217Z,12.32
2023-05-25T08:08:00.202Z,12.29
2023-05-25T08:09:00.216Z,12.20
2023-05-25T08:10:00.281Z,12.17
2023-05-25T08:11:00.177Z,12.20
2023-05-25T08:12:21.262Z,12.22
2023-05-25T08:13:00.185Z,12.31
2023-05-25T08:14:00.469Z,12.39
2023-05-25T08:15:00.192Z,12.43
2023-05-25T08:16:00.165Z,12.53
2023-05-25T08:17:00.127Z,12.57
2023-05-25T08:18:00.138Z,12.64
2023-05-25T08:19:00.071Z,12.75
2023-05-25T08:20:00.229Z,12.87
2023-05-25T08:21:00.049Z,13.03
2023-05-25T08:22:00.049Z,13.09
2023-05-25T08:23:00.026Z,13.18
2023-05-25T08:24:00.028Z,13.20
2023-05-25T08:25:00.044Z,13.30
2023-05-25T08:26:01.195Z,13.37
2023-05-25T08:26:59.989Z,13.42
2023-05-25T08:27:59.993Z,13.46
2023-05-25T08:28:59.983Z,13.59
2023-05-25T08:29:59.970Z,13.62
2023-05-25T08:30:59.994Z,13.70
2023-05-25T08:31:59.926Z,13.74
2023-05-25T08:32:59.944Z,13.86
2023-05-25T08:33:59.933Z,13.93
2023-05-25T08:34:59.924Z,13.95
2023-05-25T08:35:59.896Z,14.03
2023-05-25T08:36:59.893Z,13.93
2023-05-25T08:37:59.881Z,13.89
2023-05-25T08:38:59.882Z,13.83
2023-05-25T08:39:59.885Z,13.92
2023-05-25T08:40:59.822Z,13.93
2023-05-25T08:41:59.828Z,13.87
2023-05-25T08:42:59.861Z,13.92
2023-05-25T08:43:59.817Z,13.99
2023-05-25T08:44:59.792Z,14.03
2023-05-25T08:45:59.785Z,14.04
2023-05-25T08:46:59.787Z,14.11
2023-05-25T08:47:59.866Z,14.12
2023-05-25T08:48:59.765Z,14.18
2023-05-25T08:49:59.752Z,14.15
2023-05-25T08:50:59.740Z,14.26
2023-05-25T08:51:59.733Z,14.25
2023-05-25T08:52:59.743Z,14.23
2023-05-25T08:53:59.716Z,14.23
2023-05-25T08:54:59.694Z,14.17
2023-05-25T08:55:59.691Z,14.26
2023-05-25T08:56:59.670Z,14.30
2023-05-25T08:57:59.700Z,14.20
2023-05-25T08:58:59.640Z,14.12
2023-05-25T08:59:59.662Z,14.22
2023-05-25T09:00:59.628Z,14.29
2023-05-25T09:01:59.677Z,14.44
2023-05-25T09:02:59.815Z,14.51
2023-05-25T09:03:59.627Z,14.59
2023-05-25T09:04:59.616Z,14.78
2023-05-25T09:05:59.581Z,14.84
2023-05-25T09:07:09.656Z,14.82
2023-05-25T09:07:59.564Z,14.97
2023-05-25T09:08:59.540Z,15.17
2023-05-25T09:09:59.560Z,15.21
2023-05-25T09:10:59.552Z,15.14
2023-05-25T09:11:59.535Z,15.09
2023-05-25T09:13:04.105Z,14.99
2023-05-25T09:13:59.510Z,14.94
2023-05-25T09:14:59.476Z,14.94
2023-05-25T09:15:59.544Z,14.99
2023-05-25T09:16:59.574Z,14.82
2023-05-25T09:17:59.465Z,14.73
2023-05-25T09:18:59.434Z,14.79
2023-05-25T09:19:59.489Z,14.92
2023-05-25T09:20:59.510Z,15.10
2023-05-25T09:22:10.667Z,15.39
2023-05-25T09:22:59.438Z,15.75
2023-05-25T09:23:59.380Z,15.98
2023-05-25T09:24:59.381Z,16.16
2023-05-25T09:25:59.402Z,16.51
2023-05-25T09:26:59.353Z,17.65
2023-05-25T09:28:01.297Z,18.55
2023-05-25T09:28:59.333Z,19.64
2023-05-25T09:29:59.446Z,19.76
2023-05-25T09:30:59.393Z,19.52
2023-05-25T09:31:59.338Z,19.22
2023-05-25T09:32:59.371Z,18.92
2023-05-25T09:33:59.287Z,19.37
2023-05-25T09:34:59.286Z,18.88
2023-05-25T09:35:59.402Z,18.68
2023-05-25T09:36:59.586Z,18.96
2023-05-25T09:37:59.703Z,20.47
2023-05-25T09:38:59.475Z,21.55
2023-05-25T09:39:59.405Z,22.20
2023-05-25T09:40:59.476Z,22.68
2023-05-25T09:41:59.323Z,22.87
2023-05-25T09:42:59.267Z,23.15
2023-05-25T09:44:10.329Z,23.13
2023-05-25T09:44:59.315Z,23.18
2023-05-25T09:45:59.285Z,23.27
2023-05-25T09:46:59.274Z,22.80
2023-05-25T09:47:59.309Z,22.45
2023-05-25T09:48:59.296Z,22.84
2023-05-25T09:49:59.197Z,22.96
2023-05-25T09:50:59.195Z,23.20
2023-05-25T09:51:59.177Z,23.24
2023-05-25T09:52:59.197Z,23.54
2023-05-25T09:53:59.178Z,22.85
2023-05-25T09:54:59.126Z,21.76
2023-05-25T09:55:59.348Z,20.93
2023-05-25T09:56:59.139Z,21.36
2023-05-25T09:57:59.045Z,21.99
2023-05-25T09:58:59.021Z,22.66
2023-05-25T09:59:59.061Z,23.09
2023-05-25T10:00:59.029Z,23.40
2023-05-25T10:01:59.104Z,21.98
2023-05-25T10:02:59.034Z,22.00
2023-05-25T10:04:04.115Z,22.51
2023-05-25T10:04:59.026Z,22.35
2023-05-25T10:05:58.952Z,22.70
2023-05-25T10:06:58.941Z,22.83
2023-05-25T10:07:59.307Z,22.28
2023-05-25T10:08:58.908Z,22.35
2023-05-25T10:09:58.899Z,21.75
2023-05-25T10:10:58.892Z,21.48
2023-05-25T10:11:59.212Z,21.43
2023-05-25T10:12:58.884Z,21.52
2023-05-25T10:13:58.854Z,21.67
2023-05-25T10:14:58.839Z,21.02
2023-05-25T10:15:58.874Z,20.51
2023-05-25T10:16:59.192Z,20.43
2023-05-25T10:17:58.837Z,20.10
2023-05-25T10:18:58.807Z,19.41
2023-05-25T10:19:58.841Z,19.14
2023-05-25T10:20:59.023Z,19.07
2023-05-25T10:21:58.785Z,19.44
2023-05-25T10:22:58.758Z,19.70
2023-05-25T10:23:58.746Z,19.77
2023-05-25T10:24:58.747Z,19.99
2023-05-25T10:25:58.755Z,20.24
2023-05-25T10:26:58.817Z,21.17
2023-05-25T10:27:59.681Z,21.77
2023-05-25T10:28:58.697Z,22.28
2023-05-25T10:29:58.679Z,22.59
2023-05-25T10:30:58.701Z,22.50
2023-05-25T10:31:58.701Z,22.76
2023-05-25T10:32:58.671Z,22.73
2023-05-25T10:33:58.652Z,22.76
2023-05-25T10:34:58.648Z,23.17
2023-05-25T10:36:09.255Z,23.34
2023-05-25T10:36:58.604Z,23.02
2023-05-25T10:37:58.631Z,23.09
2023-05-25T10:38:58.589Z,23.24
2023-05-25T10:39:58.595Z,23.34
2023-05-25T10:40:58.556Z,23.37
2023-05-25T10:41:58.559Z,23.37
2023-05-25T10:42:58.538Z,23.87
2023-05-25T10:43:58.533Z,23.99
2023-05-25T10:44:58.554Z,24.26
2023-05-25T10:45:58.506Z,24.28
2023-05-25T10:46:58.527Z,24.18
2023-05-25T10:47:58.556Z,24.30
2023-05-25T10:48:58.498Z,24.20
2023-05-25T10:49:58.473Z,24.26
2023-05-25T10:50:58.447Z,23.56
2023-05-25T10:51:58.707Z,23.36
2023-05-25T10:52:58.432Z,23.63
2023-05-25T10:53:58.427Z,23.96
2023-05-25T10:54:58.430Z,24.02
2023-05-25T10:55:58.406Z,24.23
2023-05-25T10:56:58.418Z,23.48
2023-05-25T10:57:58.400Z,23.84
2023-05-25T10:58:58.369Z,24.17
2023-05-25T10:59:58.361Z,23.20
2023-05-25T11:00:58.440Z,22.93
2023-05-25T11:01:58.398Z,23.46
2023-05-25T11:02:58.336Z,22.43
2023-05-25T11:03:58.416Z,21.72
2023-05-25T11:04:58.357Z,22.39
2023-05-25T11:05:58.296Z,22.98
2023-05-25T11:06:58.275Z,23.51
2023-05-25T11:07:58.297Z,23.80
2023-05-25T11:08:58.265Z,24.23
2023-05-25T11:09:58.319Z,23.34
2023-05-25T11:10:58.250Z,22.28
2023-05-25T11:11:58.244Z,23.05
2023-05-25T11:12:58.230Z,23.46
2023-05-25T11:13:58.205Z,23.58
2023-05-25T11:14:58.196Z,23.81
2023-05-25T11:15:58.191Z,24.02
2023-05-25T11:16:58.219Z,23.92
2023-05-25T11:17:58.249Z,23.96
2023-05-25T11:18:58.199Z,23.68
2023-05-25T11:19:58.189Z,23.55
2023-05-25T11:20:58.144Z,23.93
2023-05-25T11:21:58.147Z,24.18
2023-05-25T11:22:58.144Z,23.73
2023-05-25T11:23:58.266Z,23.61
2023-05-25T11:24:58.108Z,23.84
2023-05-25T11:25:58.096Z,23.88
2023-05-25T11:26:58.089Z,23.74
2023-05-25T11:27:58.074Z,23.13
2023-05-25T11:28:58.050Z,23.50
2023-05-25T11:29:58.069Z,23.71
2023-05-25T11:30:58.071Z,23.47
2023-05-25T11:31:58.046Z,23.76
2023-05-25T11:32:58.094Z,24.20
2023-05-25T11:33:58.023Z,24.13
2023-05-25T11:34:58.020Z,23.88
2023-05-25T11:35:58.071Z,23.98
2023-05-25T11:36:57.998Z,23.91
2023-05-25T11:37:57.971Z,23.88
2023-05-25T11:39:57.941Z,24.23
2023-05-25T11:40:57.993Z,24.21
2023-05-25T11:41:57.921Z,24.18
2023-05-25T11:42:57.956Z,24.24
2023-05-25T11:43:57.910Z,24.18
2023-05-25T11:44:57.882Z,24.45
2023-05-25T11:45:57.973Z,24.65
2023-05-25T11:46:58.014Z,24.86
2023-05-25T11:47:57.917Z,24.78
2023-05-25T11:48:57.844Z,25.07
2023-05-25T11:49:57.852Z,25.06
2023-05-25T11:50:57.883Z,24.95
2023-05-25T11:51:57.839Z,24.38
2023-05-25T11:52:57.803Z,24.01
2023-05-25T11:53:57.800Z,24.23
2023-05-25T11:54:57.799Z,24.05
2023-05-25T11:56:07.485Z,24.28
2023-05-25T11:56:57.772Z,24.29
2023-05-25T11:57:57.787Z,24.13
2023-05-25T11:58:57.735Z,24.39
2023-05-25T11:59:57.801Z,24.63
2023-05-25T12:00:57.708Z,24.89
2023-05-25T12:01:57.726Z,24.84
2023-05-25T12:02:57.799Z,24.57
2023-05-25T12:03:57.831Z,23.83
2023-05-25T12:04:57.783Z,23.76
2023-05-25T12:05:57.665Z,23.69
2023-05-25T12:06:57.668Z,23.54
2023-05-25T12:07:57.637Z,23.40
2023-05-25T12:08:57.670Z,23.77
2023-05-25T12:09:57.632Z,23.25
2023-05-25T12:10:57.610Z,23.32
2023-05-25T12:11:57.599Z,23.68
2023-05-25T12:12:57.600Z,23.78
2023-05-25T12:13:57.608Z,24.08
2023-05-25T12:14:58.996Z,24.35
2023-05-25T12:15:57.547Z,23.88
2023-05-25T12:16:57.570Z,23.86
2023-05-25T12:17:57.571Z,23.37
2023-05-25T12:18:57.534Z,23.65
2023-05-25T12:19:57.562Z,23.83
2023-05-25T12:20:57.596Z,23.92
2023-05-25T12:21:57.502Z,23.73
2023-05-25T12:22:57.520Z,23.44
2023-05-25T12:23:57.466Z,23.59
2023-05-25T12:24:57.461Z,23.55
2023-05-25T12:25:57.443Z,23.31
2023-05-25T12:26:57.776Z,23.12
2023-05-25T12:27:57.517Z,22.98
2023-05-25T12:28:57.427Z,23.02
2023-05-25T12:29:57.402Z,22.90
2023-05-25T12:30:57.440Z,22.94
2023-05-25T12:31:57.401Z,22.90
2023-05-25T12:32:58.539Z,22.81
2023-05-25T12:33:57.407Z,22.93
2023-05-25T12:34:57.358Z,22.60
2023-05-25T12:35:57.349Z,22.75
2023-05-25T12:36:57.957Z,22.83
2023-05-25T12:37:57.329Z,22.90
2023-05-25T12:38:57.316Z,22.72
2023-05-25T12:39:58.286Z,22.18
2023-05-25T12:40:57.296Z,22.07
2023-05-25T12:41:57.299Z,21.62
2023-05-25T12:42:57.311Z,21.45
2023-05-25T12:43:57.368Z,21.62
2023-05-25T12:44:57.281Z,21.70
2023-05-25T12:45:57.283Z,21.89
2023-05-25T12:46:57.356Z,21.98
2023-05-25T12:47:58.067Z,22.08
2023-05-25T12:48:57.211Z,22.17
2023-05-25T12:49:57.184Z,22.43
2023-05-25T12:50:57.213Z,22.57
2023-05-25T12:51:57.170Z,21.83
2023-05-25T12:52:57.162Z,21.85
2023-05-25T12:53:57.141Z,22.07
2023-05-25T12:54:57.174Z,22.15
2023-05-25T12:55:57.148Z,22.04
2023-05-25T12:56:57.149Z,22.11
2023-05-25T12:57:57.110Z,22.35
2023-05-25T12:58:57.103Z,22.55
2023-05-25T12:59:57.129Z,22.72
2023-05-25T13:00:57.100Z,22.73
2023-05-25T13:01:57.065Z,22.23
2023-05-25T13:02:57.139Z,22.18
2023-05-25T13:03:57.067Z,22.32
2023-05-25T13:04:57.570Z,22.28
2023-05-25T13:05:57.147Z,22.15
2023-05-25T13:06:57.048Z,21.92
2023-05-25T13:07:57.021Z,21.77
2023-05-25T13:08:56.994Z,21.48
2023-05-25T13:09:57.043Z,21.35